CheckWX is a tool to help pilots better visualize weather data.  It is not intended as a substitute for an official pre-flight weather briefing.

13:08:03 UTC

KTCC TAF
Tucumcari Municipal Airport
Tucumcari, New Mexico, USA
KTCC 181126Z 1812/1912 29006KT P6SM FEW150 FM190100 08008KT P6SM FEW130

Aug-18@
12:00 UTC

Aug-18 @ 12:00 UTC

Aug-19@
01:00 UTC

Aug-19 @ 01:00 UTC

KTCC 181126Z 1812/1912 29006KT P6SM FEW150
Wind
  • 290° at 6 KTS
Cloud Levels
  • Few at 15,000' AGL

Aug-19@
01:00 UTC

Aug-19 @ 01:00 UTC

Aug-19@
12:00 UTC

Aug-19 @ 12:00 UTC

FM190100 08008KT P6SM FEW130

From

From Standard forecast or significant change

Wind
  • 080° at 8 KTS
Cloud Levels
  • Few at 13,000' AGL